createdAt,value
2019-05-03T11:33:15.759Z,97385.17
2019-05-03T11:38:19.012Z,97389.96
2019-05-03T11:43:22.071Z,97390.28
2019-05-03T11:48:25.274Z,97388.89
2019-05-03T11:53:26.363Z,97394.61
2019-05-03T11:58:27.450Z,97394.23
2019-05-03T12:03:39.460Z,97406.50
2019-05-03T12:08:40.618Z,97421.53
2019-05-03T12:13:45.456Z,97422.34
2019-05-03T12:18:53.366Z,97428.77
2019-05-03T12:23:50.092Z,97432.56
2019-05-03T12:28:51.530Z,97424.08
2019-05-03T12:33:54.900Z,97416.64
2019-05-03T12:38:55.410Z,97410.77
2019-05-03T12:43:56.357Z,97406.97
2019-05-03T12:48:57.344Z,97395.86
2019-05-03T12:53:58.328Z,97387.28
2019-05-03T12:59:10.125Z,97386.89
2019-05-03T13:04:15.165Z,97378.20
2019-05-03T13:09:16.083Z,97367.03
2019-05-03T13:14:17.096Z,97371.29
2019-05-03T13:19:17.952Z,97365.73
2019-05-03T13:24:23.101Z,97365.74
2019-05-03T13:29:21.732Z,97363.81
2019-05-03T13:34:24.712Z,97361.12
2019-05-03T13:39:26.506Z,97356.93
2019-05-03T13:44:27.661Z,97357.66
2019-05-03T13:49:28.552Z,97352.58
2019-05-03T13:54:29.433Z,97342.80
2019-05-03T13:59:30.288Z,97343.52
2019-05-03T14:04:31.164Z,97329.76
2019-05-03T14:09:34.587Z,97334.63
2019-05-03T14:14:55.970Z,97324.03
2019-05-03T14:20:09.897Z,97324.39
2019-05-03T14:25:10.972Z,97316.48
2019-05-03T14:30:14.526Z,97310.83
2019-05-03T14:35:16.308Z,97312.98
2019-05-03T14:40:17.603Z,97309.52
2019-05-03T14:45:19.020Z,97319.09
2019-05-03T14:50:21.252Z,97314.45
2019-05-03T14:55:25.204Z,97303.61
2019-05-03T15:00:38.177Z,97312.72
2019-05-03T15:05:39.276Z,97325.81
2019-05-03T15:10:40.161Z,97325.48
2019-05-03T15:15:41.141Z,97328.41
2019-05-03T15:20:42.839Z,97343.00
2019-05-03T15:25:45.211Z,97352.63
2019-05-03T15:30:46.351Z,97364.50
2019-05-03T15:35:47.251Z,97362.14
2019-05-03T15:40:48.210Z,97364.58
2019-05-03T15:45:51.014Z,97363.47
2019-05-03T15:50:51.873Z,97362.80
2019-05-03T15:55:54.528Z,97365.31
2019-05-03T16:00:56.128Z,97365.79
2019-05-03T16:05:57.066Z,97360.45
2019-05-03T16:10:57.959Z,97350.13
2019-05-03T16:15:58.830Z,97350.19
2019-05-03T16:20:59.721Z,97344.28
2019-05-03T16:26:00.707Z,97345.82
2019-05-03T16:31:09.432Z,97355.45
2019-05-03T16:36:10.320Z,97359.41
2019-05-03T16:41:11.184Z,97361.09
2019-05-03T16:46:14.408Z,97365.89
2019-05-03T16:51:17.304Z,97371.65
2019-05-03T16:56:17.974Z,97363.23
2019-05-03T17:01:18.950Z,97361.96
2019-05-03T17:06:26.394Z,97364.94
2019-05-03T17:11:27.619Z,97357.56
2019-05-03T17:16:28.496Z,97359.91
2019-05-03T17:21:29.380Z,97360.28
2019-05-03T17:26:30.276Z,97358.94
2019-05-03T17:31:31.156Z,97363.13
2019-05-03T17:36:32.051Z,97370.64
2019-05-03T17:41:47.118Z,97376.30
2019-05-03T17:46:50.680Z,97383.09
2019-05-03T17:51:57.681Z,97387.70
2019-05-03T17:57:17.718Z,97382.59
2019-05-03T18:02:27.372Z,97382.50
2019-05-03T18:07:34.915Z,97387.14
2019-05-03T18:12:36.567Z,97383.78
2019-05-03T18:17:38.952Z,97387.08
2019-05-03T18:22:40.386Z,97391.31
2019-05-03T18:27:42.321Z,97371.61
2019-05-03T18:32:45.166Z,97399.03
2019-05-03T18:37:48.064Z,97402.98
2019-05-03T18:43:05.255Z,97405.69
2019-05-03T18:48:06.143Z,97424.66
2019-05-03T18:53:07.472Z,97426.84
2019-05-03T18:58:08.357Z,97434.00
2019-05-03T19:03:11.003Z,97435.55
2019-05-03T19:08:30.440Z,97436.56
2019-05-03T19:13:33.340Z,97435.17
2019-05-03T19:18:36.220Z,97436.62
2019-05-03T19:23:37.208Z,97444.93
2019-05-03T19:28:38.093Z,97449.22
2019-05-03T19:33:38.959Z,97450.90
2019-05-03T19:38:39.840Z,97452.61
2019-05-03T19:43:40.712Z,97454.13
2019-05-03T19:48:41.619Z,97458.41
2019-05-03T19:53:47.427Z,97454.13
2019-05-03T19:58:48.832Z,97453.38
2019-05-03T20:03:54.607Z,97449.39
2019-05-03T20:09:03.163Z,97456.93
2019-05-03T20:14:04.749Z,97449.30
2019-05-03T20:19:17.850Z,97452.97
2019-05-03T20:24:08.672Z,97450.55
2019-05-03T20:29:09.567Z,97456.15
2019-05-03T20:34:10.443Z,97456.15
2019-05-03T20:39:11.319Z,97451.23
2019-05-03T20:44:24.734Z,97452.91
2019-05-03T20:49:25.576Z,97449.21
2019-05-03T20:54:26.448Z,97451.03
2019-05-03T20:59:27.428Z,97449.30
2019-05-03T21:04:28.324Z,97452.48
2019-05-03T21:09:29.184Z,97453.55
2019-05-03T21:14:30.060Z,97446.67
2019-05-03T21:19:36.317Z,97446.59
2019-05-03T21:24:47.884Z,97436.17
2019-05-03T21:29:50.675Z,97431.57
2019-05-03T21:34:51.564Z,97431.57
2019-05-03T21:39:52.435Z,97431.56
2019-05-03T21:44:55.359Z,97431.16
2019-05-03T21:49:58.018Z,97438.20
2019-05-03T21:54:59.332Z,97445.89
2019-05-03T22:00:00.913Z,97445.89
2019-05-03T22:05:03.104Z,97453.42
2019-05-03T22:10:05.521Z,97454.48
2019-05-03T22:15:20.761Z,97449.38
2019-05-03T22:20:41.849Z,97443.58
2019-05-03T22:25:43.831Z,97443.58
2019-05-03T22:30:45.334Z,97439.07
2019-05-03T22:35:46.436Z,97442.88
2019-05-03T22:40:47.313Z,97438.08
2019-05-03T22:45:48.283Z,97439.59
2019-05-03T22:50:49.179Z,97431.13
2019-05-03T22:55:50.276Z,97426.18
2019-05-03T23:00:51.168Z,97420.83
2019-05-03T23:05:52.421Z,97420.83
2019-05-03T23:10:54.734Z,97422.78
2019-05-03T23:15:55.816Z,97422.78
2019-05-03T23:20:58.611Z,97417.47
2019-05-03T23:25:59.487Z,97410.70
